createdAt,value
2022-10-06T00:02:24.087Z,9.58
2022-10-06T00:05:09.164Z,9.51
2022-10-06T00:07:54.884Z,9.48
2022-10-06T00:10:40.095Z,9.47
2022-10-06T00:13:26.361Z,9.47
2022-10-06T00:16:17.028Z,9.49
2022-10-06T00:19:01.699Z,9.41
2022-10-06T00:21:46.660Z,9.40
2022-10-06T00:24:31.712Z,9.39
2022-10-06T00:27:16.421Z,9.31
2022-10-06T00:30:05.080Z,9.26
2022-10-06T00:33:01.161Z,9.20
2022-10-06T00:35:46.947Z,9.10
2022-10-06T00:38:32.439Z,9.04
2022-10-06T00:41:18.024Z,8.98
2022-10-06T00:44:02.968Z,8.96
2022-10-06T00:46:51.685Z,8.95
2022-10-06T00:49:37.543Z,8.94
2022-10-06T00:52:27.413Z,8.94
2022-10-06T00:55:12.515Z,9.00
2022-10-06T00:57:58.793Z,9.04
2022-10-06T01:00:45.412Z,9.01
2022-10-06T01:03:36.599Z,8.98
2022-10-06T01:06:21.516Z,9.01
2022-10-06T01:09:06.426Z,8.95
2022-10-06T01:11:55.367Z,8.93
2022-10-06T01:14:40.943Z,8.87
2022-10-06T01:17:50.829Z,8.82
2022-10-06T01:20:37.825Z,8.70
2022-10-06T01:23:22.926Z,8.67
2022-10-06T01:26:10.867Z,8.62
2022-10-06T01:28:56.876Z,8.57
2022-10-06T01:31:43.253Z,8.58
2022-10-06T01:34:28.361Z,8.53
2022-10-06T01:37:13.916Z,8.50
2022-10-06T01:39:59.455Z,8.43
2022-10-06T01:42:44.474Z,8.41
2022-10-06T01:45:29.411Z,8.42
2022-10-06T01:48:14.455Z,8.42
2022-10-06T01:50:59.707Z,8.43
2022-10-06T01:53:44.711Z,8.40
2022-10-06T01:56:29.852Z,8.35
2022-10-06T01:59:15.743Z,8.30
2022-10-06T02:02:01.432Z,8.21
2022-10-06T02:04:47.021Z,8.16
2022-10-06T02:07:32.254Z,8.03
2022-10-06T02:10:17.217Z,8.09
2022-10-06T02:13:04.231Z,8.10
2022-10-06T02:15:49.272Z,8.09
2022-10-06T02:18:35.057Z,8.02
2022-10-06T02:21:22.675Z,7.91
2022-10-06T02:24:07.553Z,7.83
2022-10-06T02:26:52.744Z,7.73
2022-10-06T02:29:38.232Z,7.62
2022-10-06T02:32:23.528Z,7.49
2022-10-06T02:35:10.690Z,7.39
2022-10-06T02:37:55.436Z,7.24
2022-10-06T02:40:41.001Z,7.13
2022-10-06T02:43:29.378Z,7.08
2022-10-06T02:46:15.092Z,6.99
2022-10-06T02:49:06.432Z,6.91
2022-10-06T02:51:52.751Z,6.83
2022-10-06T02:54:37.695Z,6.80
2022-10-06T02:57:22.664Z,6.75
2022-10-06T03:00:08.433Z,6.65
2022-10-06T03:02:53.720Z,6.58
2022-10-06T03:05:38.997Z,6.50
2022-10-06T03:08:23.988Z,6.46
2022-10-06T03:11:11.150Z,6.37
2022-10-06T03:13:56.835Z,6.28
2022-10-06T03:16:42.953Z,6.24
2022-10-06T03:19:33.331Z,6.22
2022-10-06T03:22:18.403Z,6.21
2022-10-06T03:25:09.452Z,6.17
2022-10-06T03:27:54.335Z,6.15
2022-10-06T03:30:39.388Z,6.11
2022-10-06T03:33:24.287Z,6.10
2022-10-06T03:36:18.365Z,6.09
2022-10-06T03:39:05.109Z,6.07
2022-10-06T03:41:51.871Z,6.06
2022-10-06T03:44:36.982Z,6.07
2022-10-06T03:47:22.830Z,6.05
2022-10-06T03:50:08.796Z,6.04
2022-10-06T03:52:54.090Z,6.03
2022-10-06T03:55:39.382Z,6.02
2022-10-06T03:58:24.293Z,5.97
2022-10-06T04:01:26.359Z,5.97
2022-10-06T04:04:12.315Z,5.93
2022-10-06T04:06:58.138Z,5.92
2022-10-06T04:09:43.394Z,5.92
2022-10-06T04:12:29.747Z,5.94
2022-10-06T04:15:14.680Z,5.96
2022-10-06T04:17:59.588Z,5.98
2022-10-06T04:20:44.436Z,6.02
2022-10-06T04:23:29.310Z,6.05
2022-10-06T04:26:18.387Z,6.04
2022-10-06T04:29:07.516Z,6.03
2022-10-06T04:31:52.820Z,6.05
2022-10-06T04:34:49.423Z,6.08
2022-10-06T04:37:35.035Z,6.13
2022-10-06T04:40:20.422Z,6.17
2022-10-06T04:43:05.389Z,6.25
2022-10-06T04:45:58.254Z,6.33
2022-10-06T04:48:43.511Z,6.39
2022-10-06T04:51:29.182Z,6.47
2022-10-06T04:54:16.569Z,6.59
2022-10-06T04:57:01.905Z,6.69
2022-10-06T05:00:12.454Z,6.87
2022-10-06T05:03:00.645Z,7.08
2022-10-06T05:05:45.696Z,7.21
2022-10-06T05:08:32.825Z,7.37
2022-10-06T05:11:20.323Z,7.55
2022-10-06T05:14:08.849Z,7.76
2022-10-06T05:16:58.474Z,7.92
2022-10-06T05:19:43.520Z,8.10
2022-10-06T05:22:29.784Z,8.25
2022-10-06T05:25:16.454Z,8.46
2022-10-06T05:28:01.883Z,8.60
2022-10-06T05:31:04.110Z,8.74
2022-10-06T05:33:49.926Z,8.94
2022-10-06T05:36:57.166Z,9.06
2022-10-06T05:39:43.430Z,9.27
2022-10-06T05:42:37.432Z,9.41
2022-10-06T05:45:22.506Z,9.59
2022-10-06T05:48:08.495Z,9.65
2022-10-06T05:51:06.609Z,9.93
2022-10-06T05:53:54.111Z,10.08
2022-10-06T05:56:39.123Z,10.27
2022-10-06T05:59:24.767Z,10.43
2022-10-06T06:02:14.582Z,10.60
2022-10-06T06:05:01.705Z,10.76
2022-10-06T06:07:46.677Z,10.97
2022-10-06T06:10:32.237Z,11.32
2022-10-06T06:13:22.004Z,11.55
2022-10-06T06:16:17.960Z,11.54
2022-10-06T06:19:07.190Z,11.66
2022-10-06T06:21:54.029Z,11.86
2022-10-06T06:24:39.027Z,12.00
2022-10-06T06:27:27.521Z,12.10
2022-10-06T06:30:15.578Z,12.35
2022-10-06T06:33:01.196Z,12.55
2022-10-06T06:35:46.575Z,12.68
2022-10-06T06:38:32.160Z,12.83
2022-10-06T06:41:26.834Z,12.88
2022-10-06T06:44:19.716Z,12.92
2022-10-06T06:47:11.162Z,13.09
2022-10-06T06:49:58.148Z,13.29
2022-10-06T06:52:44.654Z,13.44
2022-10-06T06:55:33.077Z,13.66
2022-10-06T06:58:20.296Z,13.94
2022-10-06T07:01:13.155Z,13.98
2022-10-06T07:03:59.406Z,14.20
2022-10-06T07:06:58.044Z,14.06
2022-10-06T07:09:47.870Z,14.18
2022-10-06T07:12:34.738Z,14.27
2022-10-06T07:15:40.915Z,14.40
2022-10-06T07:18:52.575Z,14.36
2022-10-06T07:21:58.476Z,14.46
2022-10-06T07:25:02.551Z,14.71
2022-10-06T07:27:50.459Z,14.99
2022-10-06T07:30:40.905Z,14.98
2022-10-06T07:33:38.123Z,15.02
2022-10-06T07:36:24.204Z,14.72
2022-10-06T07:39:09.841Z,15.22
2022-10-06T07:41:56.425Z,15.43
2022-10-06T07:45:06.274Z,15.52
2022-10-06T07:47:58.393Z,15.79
2022-10-06T07:50:45.426Z,15.65
2022-10-06T07:53:30.512Z,15.61
2022-10-06T07:56:23.306Z,15.80
2022-10-06T07:59:12.308Z,16.06
2022-10-06T08:01:57.265Z,16.38
2022-10-06T08:04:42.092Z,16.53
2022-10-06T08:07:29.435Z,16.30
2022-10-06T08:10:14.924Z,16.46
2022-10-06T08:13:06.139Z,16.75
2022-10-06T08:15:51.336Z,16.66
2022-10-06T08:18:46.805Z,16.64
2022-10-06T08:21:37.040Z,17.00
2022-10-06T08:24:22.008Z,17.20
2022-10-06T08:27:09.209Z,17.19
2022-10-06T08:29:54.587Z,17.54
2022-10-06T08:37:20.789Z,17.30
2022-10-06T08:40:07.862Z,17.27
2022-10-06T08:42:58.538Z,17.09
2022-10-06T08:45:46.404Z,16.89
2022-10-06T08:48:40.396Z,16.83
2022-10-06T08:51:35.806Z,17.25
2022-10-06T08:54:44.676Z,17.44
2022-10-06T08:57:42.033Z,17.74
2022-10-06T09:00:34.364Z,17.60
2022-10-06T09:03:23.328Z,17.79
2022-10-06T09:06:51.845Z,17.72
2022-10-06T09:09:43.507Z,17.99
2022-10-06T09:12:47.466Z,18.12
2022-10-06T09:15:46.332Z,18.33
2022-10-06T09:19:06.884Z,18.64
2022-10-06T09:21:53.262Z,18.02
2022-10-06T09:24:47.005Z,18.31
2022-10-06T09:27:37.147Z,18.13
2022-10-06T09:30:23.531Z,18.61
2022-10-06T09:33:43.629Z,18.71
2022-10-06T09:36:29.497Z,18.60
2022-10-06T09:39:25.733Z,18.56
2022-10-06T09:42:29.053Z,18.73
2022-10-06T09:45:17.184Z,18.79
2022-10-06T09:48:27.019Z,19.08
2022-10-06T09:51:18.818Z,19.63
2022-10-06T09:59:04.239Z,19.91
2022-10-06T10:02:09.363Z,19.85
2022-10-06T10:08:50.833Z,20.27
2022-10-06T10:11:54.966Z,20.32
2022-10-06T10:14:39.797Z,20.53
2022-10-06T10:18:00.117Z,20.71
2022-10-06T10:21:01.178Z,20.81
2022-10-06T10:23:58.582Z,20.77
2022-10-06T10:26:59.530Z,19.97
2022-10-06T10:30:12.243Z,20.23
2022-10-06T10:33:11.949Z,19.99
2022-10-06T10:39:10.700Z,20.28
2022-10-06T10:42:05.750Z,20.51
2022-10-06T10:45:03.928Z,20.36
2022-10-06T10:47:48.874Z,20.09
2022-10-06T10:50:38.825Z,20.11
2022-10-06T10:53:48.911Z,20.49
2022-10-06T10:56:34.775Z,20.56
2022-10-06T10:59:38.742Z,20.86
2022-10-06T11:02:24.385Z,20.81
2022-10-06T11:05:16.438Z,20.55
2022-10-06T11:08:33.260Z,21.05
2022-10-06T11:11:39.423Z,20.86
2022-10-06T11:14:46.772Z,20.84
2022-10-06T11:17:46.533Z,20.64
2022-10-06T11:20:39.275Z,20.79
2022-10-06T11:23:40.053Z,21.04
2022-10-06T11:26:50.203Z,21.14
2022-10-06T11:30:06.903Z,21.05
2022-10-06T11:33:14.684Z,21.49
2022-10-06T11:36:06.064Z,22.08
2022-10-06T11:39:01.970Z,22.13
2022-10-06T11:41:59.966Z,21.58
2022-10-06T11:44:48.720Z,21.64
2022-10-06T11:47:59.906Z,21.42
2022-10-06T11:50:48.862Z,21.65
2022-10-06T11:53:38.168Z,22.18
2022-10-06T11:56:36.139Z,22.62
2022-10-06T11:59:26.407Z,22.37
2022-10-06T12:02:40.492Z,22.48
2022-10-06T12:08:41.540Z,21.84
2022-10-06T12:11:43.190Z,21.98
2022-10-06T12:17:54.701Z,21.83
2022-10-06T12:21:05.990Z,22.03
2022-10-06T12:24:22.313Z,22.44
2022-10-06T12:27:16.186Z,22.03
2022-10-06T12:30:22.875Z,21.83
2022-10-06T12:33:18.971Z,22.10
2022-10-06T12:36:23.477Z,22.52
2022-10-06T12:39:24.870Z,22.60
2022-10-06T12:42:24.444Z,22.71
2022-10-06T12:45:16.826Z,22.53
2022-10-06T12:48:06.127Z,22.19
2022-10-06T12:51:00.812Z,22.40
2022-10-06T12:53:56.017Z,22.01
2022-10-06T12:56:43.665Z,22.13
2022-10-06T12:59:34.070Z,22.35
2022-10-06T13:02:26.527Z,22.02
2022-10-06T13:05:12.349Z,21.39
2022-10-06T13:08:03.219Z,21.55
2022-10-06T13:10:48.430Z,21.77
2022-10-06T13:13:40.528Z,21.67
2022-10-06T13:16:35.872Z,21.71
2022-10-06T13:19:30.621Z,21.82
2022-10-06T13:22:18.203Z,21.62
2022-10-06T13:25:03.578Z,21.76
2022-10-06T13:27:51.207Z,22.03
2022-10-06T13:30:38.708Z,22.17
2022-10-06T13:33:27.765Z,21.88
2022-10-06T13:36:12.962Z,21.85
2022-10-06T13:39:00.570Z,21.83
2022-10-06T13:42:00.920Z,21.79
2022-10-06T13:44:55.933Z,21.85
2022-10-06T13:47:41.296Z,21.75
2022-10-06T13:50:29.295Z,21.45
2022-10-06T13:53:30.505Z,21.30
2022-10-06T13:56:35.051Z,21.09
2022-10-06T13:59:31.144Z,20.84
2022-10-06T14:02:16.087Z,20.72
2022-10-06T14:05:35.994Z,20.66
2022-10-06T14:08:24.543Z,20.72
2022-10-06T14:11:10.342Z,20.63
2022-10-06T14:14:06.291Z,20.58
2022-10-06T14:16:54.722Z,20.41
2022-10-06T14:19:40.627Z,20.34
2022-10-06T14:22:37.635Z,20.06
2022-10-06T14:25:22.586Z,19.88
2022-10-06T14:28:07.500Z,19.79
2022-10-06T14:30:53.236Z,19.73
2022-10-06T14:33:38.674Z,19.63
2022-10-06T14:36:32.893Z,19.53
2022-10-06T14:39:18.837Z,19.49
2022-10-06T14:42:03.832Z,19.39
2022-10-06T14:44:51.634Z,19.25
2022-10-06T14:47:36.553Z,19.11
2022-10-06T14:50:21.542Z,18.93
2022-10-06T14:53:10.526Z,18.77
2022-10-06T14:56:09.734Z,18.59
2022-10-06T14:59:03.463Z,18.45
2022-10-06T15:01:49.160Z,18.28
2022-10-06T15:04:33.982Z,18.10
2022-10-06T15:07:37.376Z,17.89
2022-10-06T15:10:22.416Z,17.64
2022-10-06T15:13:08.632Z,17.45
2022-10-06T15:15:57.592Z,17.24
2022-10-06T15:18:43.085Z,17.02
2022-10-06T15:21:32.800Z,16.79
2022-10-06T15:24:18.840Z,16.53
2022-10-06T15:27:25.061Z,16.35
2022-10-06T15:30:10.895Z,16.19
2022-10-06T15:32:59.311Z,15.99
2022-10-06T15:36:08.486Z,15.84
2022-10-06T15:38:54.664Z,15.67
2022-10-06T15:41:42.190Z,15.51
2022-10-06T15:44:31.178Z,15.33
2022-10-06T15:47:27.192Z,15.16
2022-10-06T15:50:16.428Z,15.00
2022-10-06T15:53:03.885Z,14.83
2022-10-06T15:55:48.588Z,14.64
2022-10-06T15:58:33.536Z,14.47
2022-10-06T16:01:27.584Z,14.33
2022-10-06T16:04:30.261Z,14.15
2022-10-06T16:07:21.663Z,14.01
2022-10-06T16:10:07.264Z,13.95
2022-10-06T16:12:58.632Z,13.86
2022-10-06T16:15:43.238Z,13.78
2022-10-06T16:18:28.592Z,13.72
2022-10-06T16:21:13.356Z,13.69
2022-10-06T16:23:58.692Z,13.68
2022-10-06T16:26:46.303Z,13.67
2022-10-06T16:29:31.517Z,13.64
2022-10-06T16:32:16.664Z,13.61
2022-10-06T16:35:01.412Z,13.63
2022-10-06T16:37:49.259Z,13.60
2022-10-06T16:40:34.057Z,13.56
2022-10-06T16:43:18.956Z,13.60
2022-10-06T16:46:06.345Z,13.66
2022-10-06T16:48:55.286Z,13.78
2022-10-06T16:51:42.795Z,13.90
2022-10-06T16:54:27.835Z,14.04
2022-10-06T16:57:13.042Z,14.17
2022-10-06T16:59:59.718Z,14.33
2022-10-06T17:02:44.852Z,14.47
2022-10-06T17:05:29.780Z,14.52
2022-10-06T17:08:14.707Z,14.59
2022-10-06T17:11:13.904Z,14.70
2022-10-06T17:13:58.917Z,14.74
2022-10-06T17:16:45.758Z,14.82
2022-10-06T17:19:31.212Z,14.90
2022-10-06T17:22:16.105Z,14.98
2022-10-06T17:25:01.040Z,15.02
2022-10-06T17:27:46.166Z,15.06
2022-10-06T17:30:31.029Z,15.06
2022-10-06T17:33:16.612Z,15.06
2022-10-06T17:36:15.788Z,15.10
2022-10-06T17:39:01.959Z,15.09
2022-10-06T17:41:48.308Z,15.11
2022-10-06T17:44:33.287Z,15.09
2022-10-06T17:47:17.983Z,15.08
2022-10-06T17:50:03.407Z,15.05
2022-10-06T17:52:48.052Z,15.03
2022-10-06T17:55:35.641Z,14.96
2022-10-06T17:58:21.505Z,14.87
2022-10-06T18:01:13.101Z,14.77
2022-10-06T18:04:03.404Z,14.70
2022-10-06T18:06:50.929Z,14.65
2022-10-06T18:09:35.860Z,14.63
2022-10-06T18:12:20.836Z,14.61
2022-10-06T18:15:11.702Z,14.60
2022-10-06T18:17:56.424Z,14.61
2022-10-06T18:20:41.843Z,14.63
2022-10-06T18:23:32.124Z,14.62
2022-10-06T18:26:20.939Z,14.58
2022-10-06T18:29:06.691Z,14.54
2022-10-06T18:32:09.369Z,14.52
2022-10-06T18:36:12.245Z,14.42
2022-10-06T18:38:05.566Z,14.33
2022-10-06T18:41:02.179Z,14.26
2022-10-06T18:43:46.965Z,14.26
2022-10-06T18:46:50.695Z,14.27
2022-10-06T18:49:35.813Z,14.22
2022-10-06T18:52:22.922Z,14.10
2022-10-06T18:55:08.025Z,14.05
2022-10-06T18:57:53.623Z,14.00
2022-10-06T19:00:39.325Z,13.96
2022-10-06T19:03:26.131Z,13.81
2022-10-06T19:06:11.249Z,13.71
2022-10-06T19:09:01.356Z,13.57
2022-10-06T19:11:51.241Z,13.45
2022-10-06T19:14:42.147Z,13.42
2022-10-06T19:17:28.684Z,13.34
2022-10-06T19:20:13.766Z,13.28
2022-10-06T19:23:01.684Z,13.27
2022-10-06T19:25:49.086Z,13.29
2022-10-06T19:28:37.197Z,13.29
2022-10-06T19:31:22.105Z,13.29
2022-10-06T19:34:16.346Z,13.24
2022-10-06T19:37:00.906Z,13.22
2022-10-06T19:39:47.428Z,13.17
2022-10-06T19:42:49.540Z,13.11
2022-10-06T19:45:34.075Z,13.04
2022-10-06T19:48:22.128Z,12.96
2022-10-06T19:51:15.736Z,12.92
2022-10-06T19:54:04.342Z,12.87
2022-10-06T19:56:49.540Z,12.82
2022-10-06T19:59:36.043Z,12.80
2022-10-06T20:02:20.646Z,12.81
2022-10-06T20:05:09.395Z,12.83
2022-10-06T20:07:58.635Z,12.82
2022-10-06T20:10:43.362Z,12.83
2022-10-06T20:13:28.324Z,12.83
2022-10-06T20:16:19.232Z,12.83
2022-10-06T20:19:15.733Z,12.86
2022-10-06T20:22:00.459Z,12.87
2022-10-06T20:24:48.059Z,12.84
2022-10-06T20:27:32.742Z,12.81
2022-10-06T20:30:18.313Z,12.82
2022-10-06T20:33:03.524Z,12.79
2022-10-06T20:35:48.438Z,12.81
2022-10-06T20:38:53.343Z,12.79
2022-10-06T20:41:39.854Z,12.78
2022-10-06T20:44:37.564Z,12.79
2022-10-06T20:47:25.116Z,12.79
2022-10-06T20:50:17.173Z,12.82
2022-10-06T20:53:04.234Z,12.79
2022-10-06T20:55:52.934Z,12.76
2022-10-06T20:58:37.920Z,12.67
2022-10-06T21:01:23.232Z,12.63
2022-10-06T21:04:08.946Z,12.67
2022-10-06T21:06:54.179Z,12.72
2022-10-06T21:09:39.163Z,12.69
2022-10-06T21:12:27.857Z,12.66
2022-10-06T21:15:12.927Z,12.62
2022-10-06T21:17:57.930Z,12.65
2022-10-06T21:20:45.235Z,12.64
2022-10-06T21:23:38.793Z,12.57
2022-10-06T21:26:29.936Z,12.53
2022-10-06T21:29:15.024Z,12.46
2022-10-06T21:32:00.664Z,12.39
2022-10-06T21:34:50.592Z,12.27
2022-10-06T21:37:35.386Z,12.21
2022-10-06T21:40:20.382Z,12.14
2022-10-06T21:43:05.395Z,12.09
2022-10-06T21:46:10.945Z,12.02
2022-10-06T21:49:03.715Z,11.98
2022-10-06T21:51:51.019Z,11.93
2022-10-06T21:54:37.485Z,11.90
2022-10-06T21:57:22.230Z,11.82
2022-10-06T22:00:10.523Z,11.81
2022-10-06T22:03:21.890Z,11.79
2022-10-06T22:06:13.262Z,11.79
2022-10-06T22:09:03.111Z,11.77
2022-10-06T22:11:53.869Z,11.87
2022-10-06T22:14:38.776Z,11.86
2022-10-06T22:17:23.944Z,11.84
2022-10-06T22:20:10.428Z,11.79
2022-10-06T22:22:55.310Z,11.82
2022-10-06T22:25:40.354Z,11.87
2022-10-06T22:28:27.217Z,11.86
2022-10-06T22:31:13.356Z,11.86
2022-10-06T22:34:01.268Z,11.86
2022-10-06T22:36:47.171Z,11.83
2022-10-06T22:39:35.234Z,11.80
2022-10-06T22:42:20.070Z,11.82
2022-10-06T22:45:05.533Z,11.85
2022-10-06T22:47:50.851Z,11.81
2022-10-06T22:50:35.874Z,11.84
2022-10-06T22:53:30.649Z,11.88
2022-10-06T22:56:15.588Z,11.84
2022-10-06T22:59:03.619Z,11.82
2022-10-06T23:01:48.592Z,11.81
2022-10-06T23:04:33.557Z,11.80
2022-10-06T23:07:21.460Z,11.73
2022-10-06T23:10:09.289Z,11.69
2022-10-06T23:12:55.690Z,11.63
2022-10-06T23:15:40.947Z,11.60
2022-10-06T23:18:25.763Z,11.51
2022-10-06T23:21:20.817Z,11.52
2022-10-06T23:24:06.493Z,11.49
2022-10-06T23:26:57.374Z,11.45
2022-10-06T23:29:42.572Z,11.47
2022-10-06T23:32:27.957Z,11.46
2022-10-06T23:35:13.001Z,11.42
2022-10-06T23:37:58.933Z,11.44
2022-10-06T23:40:46.978Z,11.38
2022-10-06T23:43:32.223Z,11.33
2022-10-06T23:46:16.960Z,11.26
2022-10-06T23:49:07.830Z,11.17
2022-10-06T23:51:55.226Z,11.15
2022-10-06T23:54:40.164Z,11.10
2022-10-06T23:57:24.690Z,11.07
